Latest Weather Observations for Ceduna

IDS60801

Issued at 10:21 am CDT Saturday 10 December 2022 (issued every 10 minutes, with the page automatically refreshed every 10 minutes)

About weather observations | Map of weather stations | Latest weather observations for SA | Other Formats
Station Details ID: 018012 Name: CEDUNA AMO Lat: -32.13 Lon: 133.70 Height: 15.3 m
Data from the previous 72 hours. | See also: Recent months at Ceduna
Date/Time
CDT
Temp
°C
App
Temp
°C
Dew
Point
°C
Rel
Hum
%
Delta-T
°C
Wind Press
QNH
hPa
Press
MSL
hPa
Rain since
9am
mm
Dir  Spd
km/h
Gust
km/h
Spd
kts
Gust
kts
10/10:00am 29.7 27.2 11.2 31 10.7 WNW 15 22 8 12 1008.0 1007.9 0.0
10/09:30am 28.9 26.8 13.6 39 9.1 WNW 17 22 9 12 1008.1 1008.0 0.0
10/09:00am 28.1 24.5 9.9 32 10.2 NW 19 24 10 13 1007.7 1007.6 0.0
10/08:30am 26.5 23.5 9.4 34 9.4 WNW 15 20 8 11 1007.5 1007.4 0.0
10/08:00am 26.9 22.3 5.8 26 10.9 W 19 24 10 13 1007.3 1007.2 0.0
10/07:30am 27.4 21.1 1.8 19 12.4 N 24 32 13 17 1006.4 1006.3 0.0
10/07:00am 26.3 20.0 1.6 20 11.8 N 24 30 13 16 1005.8 1005.7 0.0
10/06:30am 25.1 19.6 1.9 22 11.1 NNE 20 28 11 15 1005.6 1005.5 0.0
10/06:00am 25.5 20.0 1.6 21 11.4 NNE 20 28 11 15 1005.2 1005.1 0.0
10/05:30am 25.9 21.0 1.9 21 11.6 N 17 24 9 13 1005.1 1005.0 0.0
10/05:00am 26.3 20.4 1.6 20 11.8 N 22 26 12 14 1004.5 1004.4 0.0
10/04:30am 26.7 20.3 1.2 19 12.2 NNE 24 30 13 16 1004.2 1004.1 0.0
10/04:00am 27.5 20.4 1.1 18 12.6 NNE 28 33 15 18 1004.1 1004.0 0.0
10/03:30am 28.0 21.3 1.5 18 12.9 NNE 26 33 14 18 1004.1 1004.0 0.0
10/03:00am 28.7 20.8 1.3 17 13.3 NNE 32 41 17 22 1004.0 1003.9 0.0
10/02:30am 28.7 22.1 2.1 18 13.1 NNE 26 35 14 19 1004.2 1004.1 0.0
10/02:00am 27.9 22.7 3.6 21 12.2 NE 20 28 11 15 1004.4 1004.3 0.0
10/01:30am 27.7 22.0 4.7 23 11.8 NE 24 32 13 17 1004.4 1004.3 0.0
10/01:00am 26.9 21.4 5.8 26 10.9 ENE 24 30 13 16 1004.6 1004.5 0.0
10/12:30am 27.4 22.3 6.2 26 11.1 ENE 22 28 12 15 1004.8 1004.7 0.0
10/12:00am 26.8 22.1 6.2 27 10.8 ENE 20 24 11 13 1004.9 1004.8 0.0
 
Date/Time
CDT
Temp
°C
App
Temp
°C
Dew
Point
°C
Rel
Hum
%
Delta-T
°C
Wind Press
QNH
hPa
Press
MSL
hPa
Rain since
9am
mm
Dir  Spd
km/h
Gust
km/h
Spd
kts
Gust
kts
09/11:30pm 26.0 21.7 7.1 30 10.0 ENE 19 22 10 12 1005.0 1004.9 0.0
09/11:00pm 25.7 21.8 7.3 31 9.7 ENE 17 20 9 11 1005.0 1004.9 0.0
09/10:30pm 27.3 22.9 7.2 28 10.7 E 20 24 11 13 1004.9 1004.8 0.0
09/10:00pm 25.2 22.6 12.1 44 7.5 ESE 17 19 9 10 1004.8 1004.7 0.0
09/09:30pm 25.8 24.8 13.3 46 7.3 SE 11 15 6 8 1004.9 1004.8 0.0
09/09:00pm 26.8 24.0 12.5 41 8.3 SE 19 22 10 12 1004.8 1004.7 0.0
09/08:30pm 28.1 25.0 11.6 36 9.5 SSE 19 24 10 13 1004.9 1004.8 0.0
09/08:00pm 31.0 27.3 11.4 30 11.4 SSE 22 28 12 15 1004.9 1004.8 0.0
09/07:30pm 32.9 28.9 10.3 25 13.1 SSE 22 30 12 16 1004.5 1004.4 0.0
09/07:00pm 33.4 28.0 9.4 23 13.7 SSE 28 35 15 19 1004.6 1004.5 0.0
09/06:30pm 33.7 28.5 10.3 24 13.6 SSE 28 35 15 19 1004.6 1004.5 0.0
09/06:00pm 35.0 29.4 8.7 20 15.0 SSE 28 37 15 20 1004.6 1004.5 0.0
09/05:30pm 34.7 28.6 8.4 20 14.9 SSE 30 41 16 22 1004.8 1004.7 0.0
09/05:00pm 35.8 33.4 8.6 19 15.5 ESE 11 24 6 13 1005.6 1005.5 0.0
09/04:30pm 35.8 33.4 7.0 17 16.0 E 9 19 5 10 1005.8 1005.7 0.0
09/04:00pm 35.6 33.3 7.6 18 15.7 ESE 9 15 5 8 1006.2 1006.1 0.0
09/03:30pm 35.8 32.8 7.8 18 15.8 NNE 13 24 7 13 1006.6 1006.5 0.0
09/03:00pm 35.0 31.5 7.1 18 15.5 N 15 24 8 13 1007.0 1006.9 0.0
09/02:30pm 34.3 32.5 8.1 20 14.7 N 7 26 4 14 1007.5 1007.4 0.0
09/02:00pm 34.5 31.1 7.5 19 15.0 NNE 15 22 8 12 1008.0 1007.9 0.0
09/01:30pm 33.2 30.1 7.2 20 14.3 NNE 13 22 7 12 1008.6 1008.5 0.0
09/01:00pm 33.1 29.0 7.9 21 14.0 NNE 19 28 10 15 1009.2 1009.1 0.0
09/12:30pm 31.9 27.4 6.9 21 13.6 NNE 20 32 11 17 1009.5 1009.4 0.0
09/12:00pm 31.4 26.9 7.1 22 13.2 NNE 20 35 11 19 1009.8 1009.7 0.0
09/11:30am 30.5 26.2 7.0 23 12.7 NE 19 30 10 16 1010.0 1009.9 0.0
09/11:00am 28.6 23.8 5.5 23 12.0 NNE 20 32 11 17 1010.8 1010.7 0.0
09/10:30am 27.8 23.2 6.6 26 11.2 NNE 20 30 11 16 1011.0 1010.9 0.0
09/10:00am 26.5 21.4 7.5 30 10.1 NE 24 30 13 16 1011.2 1011.1 0.0
09/09:30am 25.1 20.8 7.7 33 9.2 NE 20 26 11 14 1011.5 1011.4 0.0
09/09:00am 22.8 18.8 8.9 41 7.4 NE 20 24 11 13 1011.6 1011.5 1.0
09/08:30am 21.0 17.3 10.2 50 5.9 ENE 20 24 11 13 1011.5 1011.4 1.0
09/08:00am 19.9 17.0 9.5 51 5.5 E 15 20 8 11 1011.3 1011.2 1.0
09/07:30am 17.5 15.2 10.6 64 3.7 SE 13 15 7 8 1011.0 1010.9 1.0
09/07:00am 15.8 14.6 10.3 70 2.9 NE 7 11 4 6 1010.6 1010.5 1.0
09/06:30am 15.1 13.5 10.1 72 2.6 NE 9 11 5 6 1010.6 1010.5 1.0
09/06:00am 15.7 13.0 10.2 70 2.9 E 15 19 8 10 1010.4 1010.3 1.0
09/05:30am 15.8 14.2 11.4 75 2.4 ESE 11 15 6 8 1010.4 1010.3 1.0
09/05:00am 15.2 14.1 12.0 81 1.7 ESE 9 13 5 7 1010.2 1010.1 1.0
09/04:30am 15.1 14.5 11.7 80 1.8 N 6 7 3 4 1010.4 1010.3 1.0
09/04:00am 15.2 13.9 11.4 78 2.0 NE 9 13 5 7 1009.6 1009.5 1.0
09/03:30am 15.9 13.8 11.1 73 2.6 NE 13 17 7 9 1009.4 1009.3 1.0
09/03:00am 16.6 13.8 11.3 71 2.9 ENE 17 20 9 11 1009.2 1009.1 1.0
09/02:30am 16.5 13.1 11.4 72 2.8 ENE 20 26 11 14 1008.8 1008.7 1.0
09/02:00am 16.8 13.6 11.9 73 2.7 ENE 20 32 11 17 1010.6 1010.5 1.0
09/01:30am 16.7 10.4 13.4 81 1.9 NE 39 52 21 28 1009.0 1008.9 1.0
09/01:12am 16.1 9.9 13.9 87 1.2 NE 39 48 21 26 1009.5 1009.4 1.0
09/01:00am 16.5 12.2 14.5 88 1.1 NE 30 39 16 21 1011.5 1011.4 1.0
09/12:52am 17.2 14.2 14.7 85 1.4 NE 24 33 13 18 1012.7 1012.6 0.4
09/12:30am 17.6 14.9 14.5 82 1.8 SE 22 32 12 17 1014.7 1014.6 0.2
09/12:00am 17.0 14.9 14.6 86 1.4 SSE 19 26 10 14 1015.5 1015.4 0.2
 
Date/Time
CDT
Temp
°C
App
Temp
°C
Dew
Point
°C
Rel
Hum
%
Delta-T
°C
Wind Press
QNH
hPa
Press
MSL
hPa
Rain since
9am
mm
Dir  Spd
km/h
Gust
km/h
Spd
kts
Gust
kts
08/11:30pm 17.3 13.8 14.4 83 1.7 SE 26 33 14 18 1015.0 1014.9 0.2
08/11:00pm 18.1 15.5 13.2 73 2.8 S 19 24 10 13 1016.4 1016.3 0.0
08/10:30pm 17.7 15.1 13.2 75 2.5 SE 19 28 10 15 1014.4 1014.3 0.0
08/10:00pm 18.3 14.0 13.2 72 2.9 SE 28 37 15 20 1012.5 1012.4 0.0
08/09:30pm 18.5 14.9 12.9 70 3.1 SE 24 30 13 16 1013.0 1012.9 0.0
08/09:00pm 18.3 16.7 12.7 70 3.1 SSE 13 17 7 9 1014.3 1014.2 0.0
08/08:30pm 18.6 17.5 12.1 66 3.6 SSE 9 15 5 8 1014.1 1014.0 0.0
08/08:00pm 18.6 17.4 12.8 69 3.3 E 11 15 6 8 1013.2 1013.1 0.0
08/07:30pm 18.5 15.7 13.1 71 3.0 ESE 20 28 11 15 1012.6 1012.5 0.0
08/07:00pm 18.6 16.2 12.8 69 3.3 SE 17 26 9 14 1013.5 1013.4 0.0
08/06:30pm 18.1 15.0 13.4 74 2.7 SSE 22 33 12 18 1013.9 1013.8 0.0
08/06:00pm 18.5 14.7 12.5 68 3.3 S 24 32 13 17 1014.6 1014.5 0.0
08/05:30pm 18.7 13.7 12.2 66 3.6 S 30 37 16 20 1014.4 1014.3 0.0
08/05:00pm 18.9 13.5 12.2 65 3.7 S 32 41 17 22 1014.5 1014.4 0.0
08/04:30pm 19.2 13.7 11.7 62 4.1 S 32 39 17 21 1014.7 1014.6 0.0
08/04:00pm 19.9 14.0 11.1 57 4.8 S 33 43 18 23 1014.6 1014.5 0.0
08/03:30pm 22.5 16.2 9.0 42 7.2 S 32 39 17 21 1014.4 1014.3 0.0
08/03:00pm 22.1 15.3 7.5 39 7.6 S 33 43 18 23 1014.4 1014.3 0.0
08/02:30pm 23.9 17.6 7.5 35 8.6 S 30 39 16 21 1014.6 1014.5 0.0
08/02:00pm 25.2 20.8 2.6 23 10.9 NE 15 20 8 11 1015.4 1015.3 0.0
08/01:30pm 24.6 20.5 4.4 27 10.0 ESE 15 32 8 17 1016.2 1016.1 0.0
08/01:00pm 23.0 19.3 2.5 26 9.7 ESE 11 20 6 11 1016.6 1016.5 0.0
08/12:30pm 21.7 17.2 2.4 28 9.0 E 15 30 8 16 1017.2 1017.1 0.0
08/12:00pm 21.5 17.0 4.1 32 8.4 E 17 28 9 15 1017.1 1017.0 0.0
08/11:30am 20.5 16.4 4.1 34 7.9 E 15 26 8 14 1018.0 1017.9 0.0
08/11:00am 20.0 15.2 4.9 37 7.4 E 19 32 10 17 1018.0 1017.9 0.0
08/10:30am 18.9 13.3 5.4 41 6.6 ESE 24 33 13 18 1018.2 1018.1 0.0
08/10:00am 18.0 13.3 6.2 46 5.8 E 20 30 11 16 1018.5 1018.4 0.0
08/09:30am 16.7 10.4 5.6 48 5.3 E 28 37 15 20 1018.6 1018.5 0.0
08/09:00am 15.6 9.8 6.1 53 4.6 E 26 33 14 18 1018.9 1018.8 0.0
08/08:30am 14.3 8.9 6.4 59 3.8 E 24 32 13 17 1018.7 1018.6 0.0
08/08:00am 13.1 8.5 6.5 64 3.2 E 20 26 11 14 1018.6 1018.5 0.0
08/07:30am 11.1 6.7 6.6 74 2.1 ESE 19 24 10 13 1018.2 1018.1 0.0
08/07:00am 9.4 4.7 5.9 79 1.6 ESE 20 26 11 14 1018.0 1017.9 0.0
08/06:30am 8.3 4.5 5.8 84 1.1 ESE 15 19 8 10 1018.0 1017.9 0.0
08/06:00am 8.6 4.8 5.9 83 1.2 ESE 15 17 8 9 1017.9 1017.8 0.0
08/05:30am 9.1 4.9 5.8 80 1.5 SE 17 20 9 11 1017.6 1017.5 0.0
08/05:00am 9.8 5.7 6.2 78 1.7 SE 17 22 9 12 1017.6 1017.5 0.0
08/04:30am 9.6 6.4 6.7 82 1.4 ESE 13 17 7 9 1017.6 1017.5 0.0
08/04:00am 10.5 6.3 7.4 81 1.5 SE 19 22 10 12 1017.6 1017.5 0.0
08/03:30am 10.5 6.4 7.9 84 1.3 ESE 19 24 10 13 1017.5 1017.4 0.0
08/03:00am 10.2 6.8 7.6 84 1.2 ESE 15 19 8 10 1017.8 1017.7 0.0
08/02:30am 9.4 7.0 7.2 86 1.0 E 9 11 5 6 1018.0 1017.9 0.0
08/02:00am 10.5 7.9 7.7 83 1.3 ESE 11 15 6 8 1018.2 1018.1 0.0
08/01:30am 10.9 8.4 8.0 82 1.4 SE 11 11 6 6 1018.3 1018.2 0.0
08/01:00am 11.8 9.0 8.5 80 1.6 SE 13 15 7 8 1018.4 1018.3 0.0
08/12:30am 12.8 10.3 8.3 74 2.2 ESE 11 17 6 9 1018.7 1018.6 0.0
08/12:00am 14.1 10.7 9.3 73 2.4 SE 17 22 9 12 1018.7 1018.6 0.0
 
Date/Time
CDT
Temp
°C
App
Temp
°C
Dew
Point
°C
Rel
Hum
%
Delta-T
°C
Wind Press
QNH
hPa
Press
MSL
hPa
Rain since
9am
mm
Dir  Spd
km/h
Gust
km/h
Spd
kts
Gust
kts
07/11:30pm 14.9 11.2 10.3 74 2.4 SSE 20 28 11 15 1018.7 1018.6 0.0
07/11:00pm 15.0 11.3 10.2 73 2.5 SSE 20 28 11 15 1018.6 1018.5 0.0
07/10:30pm 15.4 11.0 10.4 72 2.6 SSE 24 33 13 18 1018.3 1018.2 0.0
07/10:00pm 15.6 12.0 10.4 71 2.7 SSE 20 30 11 16 1018.2 1018.1 0.0
07/09:30pm 15.8 12.1 10.3 70 2.9 SSE 20 28 11 15 1017.8 1017.7 0.0
07/09:00pm 16.0 11.7 9.4 65 3.4 SSE 22 32 12 17 1017.6 1017.5 0.0
07/08:30pm 16.3 11.3 9.7 65 3.4 S 26 35 14 19 1017.3 1017.2 0.0
07/08:00pm 16.8 12.4 10.4 66 3.4 SSE 24 35 13 19 1017.1 1017.0 0.0
07/07:30pm 17.5 12.7 10.4 63 3.8 S 26 35 14 19 1016.7 1016.6 0.0
07/07:00pm 17.6 12.1 10.5 63 3.8 S 30 37 16 20 1016.4 1016.3 0.0
07/06:30pm 18.4 12.6 11.5 64 3.8 S 33 43 18 23 1016.2 1016.1 0.0
07/06:00pm 19.0 13.4 11.6 62 4.1 S 32 44 17 24 1015.9 1015.8 0.0
07/05:30pm 19.0 13.3 11.8 63 4.0 S 33 43 18 23 1015.9 1015.8 0.0
07/05:00pm 19.8 15.4 11.8 60 4.4 S 26 39 14 21 1016.0 1015.9 0.0
07/04:30pm 19.6 14.5 10.6 56 4.9 S 28 35 15 19 1016.1 1016.0 0.0
07/04:00pm 20.1 15.5 11.1 56 4.9 S 26 35 14 19 1015.9 1015.8 0.0
07/03:30pm 19.7 14.7 10.9 57 4.8 S 28 39 15 21 1016.0 1015.9 0.0
07/03:00pm 20.3 15.3 11.0 55 5.1 S 28 39 15 21 1016.1 1016.0 0.0
07/02:30pm 20.6 15.1 10.7 53 5.4 S 30 41 16 22 1016.2 1016.1 0.0
07/02:00pm 20.2 15.0 10.3 53 5.3 S 28 39 15 21 1016.3 1016.2 0.0
07/01:31pm 21.1 16.2 11.4 54 5.4 S 28 50 15 27 1016.1 1016.0 0.0
07/01:30pm 20.8 15.9 11.2 54 5.3 S 28 39 15 21 1016.3 1016.2 0.0
07/01:00pm 19.5 13.9 10.2 55 5.0 S 30 43 16 23 1016.1 1016.0 0.0
07/12:30pm 20.4 14.7 9.9 51 5.6 S 30 39 16 21 1015.9 1015.8 0.0
07/12:00pm 19.9 14.6 11.4 58 4.7 S 30 43 16 23 1015.7 1015.6 0.0
07/11:30am 19.3 13.6 11.1 59 4.5 S 32 41 17 22 1015.6 1015.5 0.0
07/11:00am 18.3 13.8 11.4 64 3.8 SSW 26 37 14 20 1015.5 1015.4 0.0
07/10:30am 18.9 14.3 12.4 66 3.6 SSW 28 39 15 21 1015.1 1015.0 0.0

Other formats

Comma delimited format used in spreadsheet applications
http://www.bom.gov.au/fwo/IDS60801/IDS60801.94653.axf

JavaScript Object Notation format (JSON) in row-major order
http://www.bom.gov.au/fwo/IDS60801/IDS60801.94653.json

Data quality

Most of these data are generated automatically and are frequently updated. Quality checks on data are not normally performed. It is possible for incorrect values to appear. Refer to information at About Latest Weather Observations and please check the disclaimer before using these data.